createdAt,value
2022-09-21T00:01:09.743Z,1.98
2022-09-21T00:04:12.362Z,1.45
2022-09-21T00:07:15.414Z,3.58
2022-09-21T00:10:20.017Z,3.30
2022-09-21T00:13:26.267Z,4.95
2022-09-21T00:16:57.490Z,4.00
2022-09-21T00:20:01.011Z,2.53
2022-09-21T00:23:03.672Z,2.42
2022-09-21T00:26:17.520Z,1.90
2022-09-21T00:29:20.182Z,12.75
2022-09-21T00:32:25.750Z,3.55
2022-09-21T00:35:30.386Z,4.18
2022-09-21T00:38:34.187Z,2.00
2022-09-21T00:41:39.082Z,1.60
2022-09-21T00:44:44.627Z,3.17
2022-09-21T00:47:47.151Z,1.48
2022-09-21T00:50:56.757Z,7.13
2022-09-21T00:54:01.624Z,8.43
2022-09-21T00:57:06.079Z,5.18
2022-09-21T01:00:09.955Z,2.97
2022-09-21T01:03:14.803Z,3.50
2022-09-21T01:06:26.693Z,3.67
2022-09-21T01:09:29.565Z,6.70
2022-09-21T01:12:46.575Z,7.47
2022-09-21T01:15:53.043Z,4.70
2022-09-21T01:19:01.155Z,4.00
2022-09-21T01:22:09.375Z,7.60
2022-09-21T01:25:19.845Z,4.18
2022-09-21T01:28:32.996Z,5.10
2022-09-21T01:31:41.610Z,2.10
2022-09-21T01:34:47.717Z,6.07
2022-09-21T01:37:57.591Z,3.63
2022-09-21T01:41:02.458Z,1.20
2022-09-21T01:44:25.160Z,5.60
2022-09-21T01:47:38.425Z,8.60
2022-09-21T01:50:44.281Z,1.80
2022-09-21T01:53:55.602Z,1.08
2022-09-21T01:57:04.484Z,1.33
2022-09-21T02:00:19.864Z,2.50
2022-09-21T02:03:31.427Z,1.75
2022-09-21T02:06:42.884Z,2.20
2022-09-21T02:09:49.453Z,1.92
2022-09-21T02:13:05.633Z,0.95
2022-09-21T02:16:21.228Z,2.53
2022-09-21T02:19:39.687Z,4.85
2022-09-21T02:22:49.450Z,1.33
2022-09-21T02:25:58.197Z,2.03
2022-09-21T02:29:08.930Z,1.15
2022-09-21T02:32:14.031Z,5.22
2022-09-21T02:35:24.270Z,2.10
2022-09-21T02:38:37.130Z,2.00
2022-09-21T02:41:49.595Z,1.17
2022-09-21T02:45:00.669Z,3.92
2022-09-21T02:48:06.255Z,3.50
2022-09-21T02:51:11.403Z,2.03
2022-09-21T02:54:15.394Z,3.38
2022-09-21T02:57:20.601Z,1.63
2022-09-21T03:00:26.076Z,3.85
2022-09-21T03:03:28.893Z,1.60
2022-09-21T03:06:33.471Z,3.15
2022-09-21T03:09:42.074Z,2.63
2022-09-21T03:12:46.052Z,7.45
2022-09-21T03:15:48.899Z,1.75
2022-09-21T03:18:51.443Z,1.70
2022-09-21T03:21:55.439Z,3.05
2022-09-21T03:25:02.216Z,1.48
2022-09-21T03:28:05.615Z,3.13
2022-09-21T03:31:08.139Z,4.45
2022-09-21T03:34:11.944Z,2.15
2022-09-21T03:37:16.998Z,1.63
2022-09-21T03:40:19.984Z,2.55
2022-09-21T03:43:22.722Z,2.75
2022-09-21T03:46:25.393Z,7.75
2022-09-21T03:49:29.830Z,3.00
2022-09-21T03:52:39.945Z,2.95
2022-09-21T03:55:42.460Z,7.18
2022-09-21T03:58:47.443Z,3.83
2022-09-21T04:01:50.113Z,4.20
2022-09-21T04:04:53.066Z,4.93
2022-09-21T04:07:57.344Z,9.05
2022-09-21T04:11:00.113Z,2.05
2022-09-21T04:14:02.809Z,5.22
2022-09-21T04:17:06.263Z,3.25
2022-09-21T04:20:09.518Z,3.63
2022-09-21T04:23:13.498Z,4.45
2022-09-21T04:26:23.500Z,3.00
2022-09-21T04:29:26.087Z,3.40
2022-09-21T04:32:28.720Z,5.00
2022-09-21T04:35:31.142Z,2.97
2022-09-21T04:38:35.222Z,2.58
2022-09-21T04:41:37.747Z,4.65
2022-09-21T04:44:40.381Z,5.70
2022-09-21T04:47:43.192Z,2.78
2022-09-21T04:50:49.058Z,4.80
2022-09-21T04:53:52.933Z,3.00
2022-09-21T04:56:55.519Z,4.38
2022-09-21T04:59:58.224Z,4.45
2022-09-21T05:03:00.825Z,2.17
2022-09-21T05:06:03.709Z,3.65
2022-09-21T05:09:25.329Z,2.22
2022-09-21T05:12:27.778Z,2.83
2022-09-21T05:15:30.306Z,3.45
2022-09-21T05:18:32.964Z,3.72
2022-09-21T05:21:38.204Z,3.95
2022-09-21T05:24:42.051Z,2.83
2022-09-21T05:27:44.566Z,9.48
2022-09-21T05:31:13.816Z,5.20
2022-09-21T05:34:19.648Z,4.22
2022-09-21T05:37:31.589Z,7.00
2022-09-21T05:40:36.032Z,3.17
2022-09-21T05:43:38.747Z,5.00
2022-09-21T05:46:43.279Z,2.88
2022-09-21T05:49:52.735Z,4.43
2022-09-21T05:53:00.821Z,6.85
2022-09-21T05:56:08.085Z,3.88
2022-09-21T05:59:21.364Z,5.63
2022-09-21T06:02:31.742Z,6.63
2022-09-21T06:05:34.225Z,6.70
2022-09-21T06:08:36.857Z,5.32
2022-09-21T06:11:40.864Z,9.23
2022-09-21T06:14:45.962Z,3.78
2022-09-21T06:17:48.514Z,5.20
2022-09-21T06:20:50.978Z,7.65
2022-09-21T06:23:53.471Z,6.72
2022-09-21T06:27:04.314Z,5.90
2022-09-21T06:30:10.567Z,4.53
2022-09-21T06:33:14.420Z,4.38
2022-09-21T06:36:17.431Z,7.03
2022-09-21T06:39:25.794Z,6.68
2022-09-21T06:42:30.676Z,7.57
2022-09-21T06:45:33.974Z,4.53
2022-09-21T06:48:37.617Z,3.72
2022-09-21T06:51:43.608Z,4.38
2022-09-21T06:54:50.232Z,4.80
2022-09-21T06:58:07.573Z,3.30
2022-09-21T07:05:02.888Z,3.00
2022-09-21T07:10:05.174Z,5.25
2022-09-21T07:11:46.594Z,6.72
2022-09-21T07:14:59.884Z,2.15
2022-09-21T07:18:12.329Z,2.10
2022-09-21T07:21:19.991Z,3.70
2022-09-21T07:24:26.602Z,3.70
2022-09-21T07:27:30.228Z,2.28
2022-09-21T07:30:37.636Z,3.17
2022-09-21T07:33:41.421Z,1.88
2022-09-21T07:36:46.492Z,1.38
2022-09-21T07:39:52.924Z,1.27
2022-09-21T07:43:38.495Z,2.00
2022-09-21T07:46:50.468Z,1.50
2022-09-21T07:49:53.654Z,2.97
2022-09-21T07:53:15.076Z,2.05
2022-09-21T08:00:16.281Z,3.53
2022-09-21T08:03:33.651Z,1.80
2022-09-21T08:06:45.450Z,1.60
2022-09-21T08:09:51.582Z,0.60
2022-09-21T08:13:19.692Z,0.50
2022-09-21T08:16:23.530Z,3.10
2022-09-21T08:19:34.147Z,2.80
2022-09-21T08:23:05.697Z,1.95
2022-09-21T08:26:13.076Z,0.30
2022-09-21T08:29:15.804Z,0.85
2022-09-21T08:32:46.653Z,1.13
2022-09-21T08:35:44.052Z,0.35
2022-09-21T08:38:48.150Z,2.80
2022-09-21T08:42:01.238Z,0.38
2022-09-21T08:45:08.727Z,1.67
2022-09-21T08:48:15.118Z,0.40
2022-09-21T08:51:23.254Z,0.68
2022-09-21T08:54:32.129Z,0.43
2022-09-21T08:57:36.272Z,4.05
2022-09-21T09:00:44.580Z,5.47
2022-09-21T09:04:05.663Z,1.10
2022-09-21T09:07:17.306Z,0.70
2022-09-21T09:10:29.523Z,1.13
2022-09-21T09:13:51.383Z,1.33
2022-09-21T09:17:02.652Z,0.60
2022-09-21T09:20:08.300Z,0.50
2022-09-21T09:23:16.337Z,1.85
2022-09-21T09:26:20.725Z,0.32
2022-09-21T09:29:29.631Z,4.18
2022-09-21T09:32:36.443Z,0.35
2022-09-21T09:35:41.518Z,0.43
2022-09-21T09:38:52.174Z,0.52
2022-09-21T09:42:11.391Z,0.68
2022-09-21T09:45:22.417Z,2.03
2022-09-21T09:48:31.383Z,1.98
2022-09-21T09:51:35.176Z,3.00
2022-09-21T09:54:42.133Z,0.73
2022-09-21T09:57:48.157Z,0.30
2022-09-21T10:00:55.305Z,0.95
2022-09-21T10:04:05.716Z,1.08
2022-09-21T10:07:18.719Z,0.50
2022-09-21T10:10:35.346Z,1.92
2022-09-21T10:13:48.463Z,1.55
2022-09-21T10:16:52.966Z,2.70
2022-09-21T10:20:05.469Z,0.40
2022-09-21T10:23:15.487Z,1.65
2022-09-21T10:26:22.811Z,0.50
2022-09-21T10:29:35.835Z,1.30
2022-09-21T10:32:39.686Z,0.75
2022-09-21T10:35:52.888Z,1.48
2022-09-21T10:39:19.526Z,1.58
2022-09-21T10:42:24.142Z,1.35
2022-09-21T10:45:28.307Z,3.17
2022-09-21T10:48:33.289Z,1.83
2022-09-21T10:51:40.818Z,0.35
2022-09-21T10:54:48.931Z,0.30
2022-09-21T10:57:56.391Z,0.63
2022-09-21T11:01:16.426Z,0.15
2022-09-21T11:04:40.084Z,0.22
2022-09-21T11:07:47.623Z,0.47
2022-09-21T11:11:09.717Z,0.13
2022-09-21T11:14:17.922Z,0.73
2022-09-21T11:17:35.263Z,0.20
2022-09-21T11:20:40.838Z,0.32
2022-09-21T11:23:49.823Z,1.35
2022-09-21T11:27:01.737Z,0.40
2022-09-21T11:30:12.102Z,0.25
2022-09-21T11:33:21.807Z,0.20
2022-09-21T11:36:31.389Z,0.30
2022-09-21T11:39:46.841Z,1.75
2022-09-21T11:42:57.809Z,0.30
2022-09-21T11:46:10.603Z,0.30
2022-09-21T11:49:32.263Z,2.17
2022-09-21T11:52:42.429Z,0.40
2022-09-21T11:56:03.991Z,0.90
2022-09-21T11:59:16.164Z,1.55
2022-09-21T12:02:44.516Z,0.45
2022-09-21T12:05:55.424Z,0.20
2022-09-21T12:09:24.946Z,2.40
2022-09-21T12:12:31.419Z,0.20
2022-09-21T12:15:39.249Z,0.95
2022-09-21T12:19:04.294Z,0.30
2022-09-21T12:22:11.966Z,0.30
2022-09-21T12:25:17.136Z,0.30
2022-09-21T12:28:22.558Z,0.22
2022-09-21T12:31:34.370Z,4.50
2022-09-21T12:34:42.163Z,0.38
2022-09-21T12:37:47.746Z,0.20
2022-09-21T12:40:54.128Z,0.30
2022-09-21T12:44:00.126Z,0.20
2022-09-21T12:47:10.664Z,0.40
2022-09-21T12:50:21.310Z,0.30
2022-09-21T12:53:25.968Z,2.83
2022-09-21T12:56:37.602Z,0.47
2022-09-21T12:59:45.193Z,1.65
2022-09-21T13:02:51.703Z,4.10
2022-09-21T13:06:06.708Z,0.57
2022-09-21T13:09:11.998Z,0.22
2022-09-21T13:12:18.264Z,0.40
2022-09-21T13:15:30.840Z,0.45
2022-09-21T13:18:36.743Z,3.15
2022-09-21T13:21:46.451Z,1.35
2022-09-21T13:25:06.038Z,0.38
2022-09-21T13:28:34.109Z,0.63
2022-09-21T13:31:42.435Z,0.30
2022-09-21T13:34:51.808Z,0.68
2022-09-21T13:38:14.353Z,0.43
2022-09-21T13:42:02.487Z,0.95
2022-09-21T13:44:53.564Z,0.60
2022-09-21T13:48:16.768Z,0.20
2022-09-21T13:57:34.548Z,0.20
2022-09-21T14:00:31.911Z,0.43
2022-09-21T14:03:59.677Z,0.20
2022-09-21T14:07:27.557Z,0.28
2022-09-21T14:14:34.833Z,0.40
2022-09-21T14:18:20.077Z,0.22
2022-09-21T14:21:35.736Z,0.60
2022-09-21T14:29:45.853Z,2.55
2022-09-21T14:40:39.942Z,1.17
2022-09-21T14:44:25.440Z,0.40
2022-09-21T14:47:44.905Z,0.55
2022-09-21T14:51:42.894Z,1.08
2022-09-21T14:59:08.749Z,0.80
2022-09-21T15:06:32.238Z,0.77
2022-09-21T15:10:14.109Z,0.82
2022-09-21T15:17:37.325Z,0.22
2022-09-21T15:21:08.313Z,3.53
2022-09-21T15:24:29.361Z,0.30
2022-09-21T15:27:34.098Z,0.40
2022-09-21T15:30:43.976Z,0.57
2022-09-21T15:33:50.086Z,1.50
2022-09-21T15:36:52.828Z,1.63
2022-09-21T15:40:00.846Z,4.03
2022-09-21T15:43:05.589Z,0.30
2022-09-21T15:46:11.918Z,0.20
2022-09-21T15:49:21.238Z,0.30
2022-09-21T15:52:27.064Z,0.90
2022-09-21T15:55:30.197Z,0.68
2022-09-21T15:58:35.592Z,3.13
2022-09-21T16:01:40.682Z,0.43
2022-09-21T16:04:49.283Z,0.43
2022-09-21T16:08:05.099Z,1.35
2022-09-21T16:11:18.824Z,3.53
2022-09-21T16:14:39.979Z,0.73
2022-09-21T16:17:54.409Z,0.45
2022-09-21T16:21:08.244Z,0.65
2022-09-21T16:24:19.353Z,3.03
2022-09-21T16:27:23.995Z,0.28
2022-09-21T16:30:40.555Z,4.03
2022-09-21T16:34:00.343Z,5.70
2022-09-21T16:37:22.876Z,1.10
2022-09-21T16:40:26.521Z,0.50
2022-09-21T16:43:29.831Z,0.50
2022-09-21T16:46:32.730Z,0.90
2022-09-21T16:49:35.979Z,0.35
2022-09-21T16:52:40.468Z,0.88
2022-09-21T16:55:43.695Z,0.82
2022-09-21T16:58:48.904Z,0.50
2022-09-21T17:01:56.298Z,0.40
2022-09-21T17:04:59.387Z,0.57
2022-09-21T17:08:18.046Z,0.40
2022-09-21T17:11:23.867Z,5.80
2022-09-21T17:14:35.140Z,0.65
2022-09-21T17:17:38.965Z,2.92
2022-09-21T17:20:42.840Z,1.77
2022-09-21T17:23:48.976Z,2.25
2022-09-21T17:26:51.517Z,3.40
2022-09-21T17:29:57.471Z,1.80
2022-09-21T17:33:02.040Z,1.52
2022-09-21T17:36:06.498Z,1.98
2022-09-21T17:39:10.461Z,1.35
2022-09-21T17:42:18.051Z,4.40
2022-09-21T17:45:25.128Z,1.60
2022-09-21T17:48:34.052Z,2.28
2022-09-21T17:51:58.405Z,3.20
2022-09-21T17:55:05.879Z,2.38
2022-09-21T17:58:17.292Z,4.32
2022-09-21T18:01:23.542Z,3.80
2022-09-21T18:04:30.404Z,3.72
2022-09-21T18:07:34.201Z,4.70
2022-09-21T18:10:42.156Z,6.72
2022-09-21T18:13:52.183Z,5.70
2022-09-21T18:16:59.999Z,5.20
2022-09-21T18:20:07.764Z,7.20
2022-09-21T18:23:18.892Z,9.45
2022-09-21T18:26:23.409Z,13.60
2022-09-21T18:29:45.690Z,7.57
2022-09-21T18:32:56.929Z,4.50
2022-09-21T18:36:06.673Z,5.25
2022-09-21T18:39:17.179Z,7.47
2022-09-21T18:42:27.223Z,6.00
2022-09-21T18:45:31.784Z,6.50
2022-09-21T18:48:48.528Z,6.07
2022-09-21T18:51:55.276Z,6.22
2022-09-21T18:54:58.049Z,13.82
2022-09-21T18:58:02.532Z,9.40
2022-09-21T19:01:05.573Z,9.40
2022-09-21T19:04:08.619Z,9.25
2022-09-21T19:07:17.847Z,14.20
2022-09-21T19:10:22.766Z,7.60
2022-09-21T19:13:36.984Z,7.78
2022-09-21T19:16:43.320Z,10.70
2022-09-21T19:19:50.727Z,10.18
2022-09-21T19:22:57.815Z,8.75
2022-09-21T19:26:03.473Z,9.25
2022-09-21T19:29:21.269Z,10.35
2022-09-21T19:32:32.367Z,10.45
2022-09-21T19:35:35.222Z,10.05
2022-09-21T19:38:42.334Z,12.88
2022-09-21T19:41:50.056Z,11.32
2022-09-21T19:45:01.260Z,10.52
2022-09-21T19:48:11.119Z,9.88
2022-09-21T19:51:17.438Z,12.20
2022-09-21T19:54:54.958Z,5.78
2022-09-21T19:58:16.110Z,7.40
2022-09-21T20:01:19.579Z,3.47
2022-09-21T20:04:28.876Z,4.53
2022-09-21T20:07:37.961Z,7.50
2022-09-21T20:10:47.421Z,12.02
2022-09-21T20:14:07.104Z,4.85
2022-09-21T20:17:13.365Z,7.80
2022-09-21T20:20:23.883Z,9.23
2022-09-21T20:23:26.793Z,4.07
2022-09-21T20:26:32.442Z,8.75
2022-09-21T20:29:35.894Z,9.73
2022-09-21T20:32:47.027Z,6.20
2022-09-21T20:35:52.581Z,6.70
2022-09-21T20:38:56.691Z,5.80
2022-09-21T20:42:00.118Z,11.15
2022-09-21T20:45:04.977Z,4.55
2022-09-21T20:48:14.239Z,5.97
2022-09-21T20:51:18.274Z,7.45
2022-09-21T20:54:23.163Z,5.50
2022-09-21T20:57:25.747Z,4.95
2022-09-21T21:00:35.487Z,5.28
2022-09-21T21:03:38.303Z,10.40
2022-09-21T21:06:43.298Z,9.35
2022-09-21T21:09:45.862Z,8.27
2022-09-21T21:12:51.559Z,5.15
2022-09-21T21:15:54.140Z,9.20
2022-09-21T21:18:57.248Z,4.80
2022-09-21T21:22:01.289Z,7.97
2022-09-21T21:25:04.537Z,7.05
2022-09-21T21:28:10.359Z,5.40
2022-09-21T21:31:17.051Z,4.68
2022-09-21T21:34:23.012Z,3.53
2022-09-21T21:37:27.749Z,5.93
2022-09-21T21:40:30.556Z,5.43
2022-09-21T21:43:34.211Z,3.75
2022-09-21T21:46:43.724Z,4.13
2022-09-21T21:49:48.022Z,4.63
2022-09-21T21:52:52.465Z,3.25
2022-09-21T21:56:02.121Z,3.95
2022-09-21T21:59:07.677Z,3.83
2022-09-21T22:02:16.513Z,4.63
2022-09-21T22:05:19.767Z,5.53
2022-09-21T22:08:24.970Z,4.72
2022-09-21T22:11:28.975Z,3.55
2022-09-21T22:14:31.774Z,3.83
2022-09-21T22:17:34.468Z,2.90
2022-09-21T22:20:36.955Z,4.03
2022-09-21T22:23:42.978Z,4.90
2022-09-21T22:26:48.370Z,6.82
2022-09-21T22:29:52.912Z,6.90
2022-09-21T22:32:55.619Z,3.28
2022-09-21T22:36:02.802Z,4.65
2022-09-21T22:39:09.248Z,6.13
2022-09-21T22:42:12.488Z,3.45
2022-09-21T22:45:15.437Z,3.55
2022-09-21T22:48:22.975Z,3.80
2022-09-21T22:51:26.842Z,2.17
2022-09-21T22:54:35.476Z,5.10
2022-09-21T22:57:39.531Z,3.75
2022-09-21T23:00:53.571Z,4.40
2022-09-21T23:04:01.762Z,7.05
2022-09-21T23:07:04.439Z,2.40
2022-09-21T23:10:09.073Z,1.65
2022-09-21T23:13:13.435Z,1.73
2022-09-21T23:16:17.244Z,2.40
2022-09-21T23:19:19.966Z,8.23
2022-09-21T23:22:22.600Z,2.00
2022-09-21T23:25:26.719Z,2.58
2022-09-21T23:28:29.602Z,4.13
2022-09-21T23:31:32.925Z,3.78
2022-09-21T23:34:35.445Z,4.22
2022-09-21T23:37:37.980Z,1.10
2022-09-21T23:40:41.792Z,2.38
2022-09-21T23:43:45.435Z,2.67
2022-09-21T23:46:47.969Z,1.35
2022-09-21T23:49:50.467Z,1.90
2022-09-21T23:52:52.922Z,1.27
2022-09-21T23:55:57.488Z,2.97
2022-09-21T23:59:00.598Z,1.85
